Time;durP1;ratioP1;P1;durP2;ratioP2;P2;SDS_P1;SDS_P2;PMS_P1;PMS_P2;Temp;Humidity;BMP_temperature;BMP_pressure;BME280_temperature;BME280_humidity;BME280_pressure;Samples;Min_cycle;Max_cycle;Signal;HPM_P1;HPM_P2
2023/05/25 00:01:33;;;;;;;19.10;8.02;;;;;;;;;;5054933;28;20103;-78
2023/05/25 00:03:59;;;;;;;18.55;7.35;;;;;;;;;;5055592;28;20013;-78
2023/05/25 00:06:26;;;;;;;15.70;8.25;;;;;;;;;;5055261;28;20036;-78
2023/05/25 00:08:54;;;;;;;22.45;8.70;;;;;;;;;;5055071;28;20081;-77
2023/05/25 00:11:22;;;;;;;20.15;7.47;;;;;;;;;;5055706;28;20116;-77
2023/05/25 00:13:48;;;;;;;20.08;7.28;;;;;;;;;;5055795;28;20349;-78
2023/05/25 00:16:14;;;;;;;18.83;7.82;;;;;;;;;;5055555;28;20029;-78
2023/05/25 00:18:40;;;;;;;20.08;7.57;;;;;;;;;;5056257;28;20411;-78
2023/05/25 00:21:06;;;;;;;11.15;6.90;;;;;;;;;;5056846;28;20487;-78
2023/05/25 00:23:32;;;;;;;16.00;7.10;;;;;;;;;;5057253;28;20025;-78
2023/05/25 00:25:59;;;;;;;16.23;6.43;;;;;;;;;;5056134;28;20036;-78
2023/05/25 00:28:25;;;;;;;15.88;6.85;;;;;;;;;;5056190;28;20165;-78
2023/05/25 00:30:51;;;;;;;18.25;6.55;;;;;;;;;;5056860;28;20472;-78
2023/05/25 00:33:17;;;;;;;14.77;6.05;;;;;;;;;;5076269;28;20063;-78
2023/05/25 00:35:43;;;;;;;13.07;6.10;;;;;;;;;;5099065;28;20028;-78
2023/05/25 00:38:27;;;;;;;14.27;6.13;;;;;;;;;;5099516;28;20084;-78
2023/05/25 00:40:56;;;;;;;10.50;5.72;;;;;;;;;;5085766;28;20032;-78
2023/05/25 00:43:22;;;;;;;13.38;6.07;;;;;;;;;;5098682;28;20115;-78
2023/05/25 00:45:50;;;;;;;16.88;6.28;;;;;;;;;;5081717;28;20063;-78
2023/05/25 00:48:17;;;;;;;18.88;7.07;;;;;;;;;;5095810;28;20052;-78
2023/05/25 00:50:52;;;;;;;13.40;6.20;;;;;;;;;;5098378;28;20086;-78
2023/05/25 00:53:18;;;;;;;17.08;6.97;;;;;;;;;;5098293;28;20035;-78
2023/05/25 00:55:49;;;;;;;12.10;5.80;;;;;;;;;;5098001;28;20036;-78
2023/05/25 00:58:17;;;;;;;17.05;7.07;;;;;;;;;;5098563;28;20020;-78
2023/05/25 01:00:45;;;;;;;13.20;6.45;;;;;;;;;;5080676;28;20382;-78
2023/05/25 01:03:16;;;;;;;13.30;5.63;;;;;;;;;;5096464;28;20016;-77
2023/05/25 01:05:44;;;;;;;13.80;5.70;;;;;;;;;;5096240;28;20020;-78
2023/05/25 01:08:10;;;;;;;14.00;5.75;;;;;;;;;;5089685;28;20035;-78
2023/05/25 01:10:38;;;;;;;15.60;5.97;;;;;;;;;;5093667;28;20095;-78
2023/05/25 01:13:12;;;;;;;12.70;6.78;;;;;;;;;;5095193;28;20028;-77
2023/05/25 01:15:38;;;;;;;15.30;6.18;;;;;;;;;;5095749;28;20401;-78
2023/05/25 01:18:05;;;;;;;15.07;6.30;;;;;;;;;;5095849;28;20035;-77
2023/05/25 01:20:31;;;;;;;17.83;6.25;;;;;;;;;;5078063;28;20096;-78
2023/05/25 01:22:59;;;;;;;10.75;5.47;;;;;;;;;;5097758;28;20060;-78
2023/05/25 01:25:29;;;;;;;14.43;6.03;;;;;;;;;;5095029;28;20063;-78
2023/05/25 01:27:55;;;;;;;;;;;;;;;;;;5096420;28;20035;-78
2023/05/25 01:30:22;;;;;;;12.55;5.95;;;;;;;;;;5097163;28;20266;-78
2023/05/25 01:32:48;;;;;;;12.20;5.80;;;;;;;;;;5095883;28;20032;-78
2023/05/25 01:35:14;;;;;;;16.77;6.13;;;;;;;;;;5095078;28;20109;-78
2023/05/25 01:37:47;;;;;;;22.70;6.47;;;;;;;;;;5097049;28;20036;-78
2023/05/25 01:40:13;;;;;;;12.32;6.43;;;;;;;;;;5096583;28;20020;-77
2023/05/25 01:42:39;;;;;;;15.23;6.30;;;;;;;;;;5096108;28;20021;-78
2023/05/25 01:45:06;;;;;;;14.38;6.45;;;;;;;;;;5095661;28;20074;-78
2023/05/25 01:47:40;;;;;;;11.63;5.85;;;;;;;;;;5094811;28;20031;-78
2023/05/25 01:50:18;;;;;;;14.20;6.22;;;;;;;;;;5095427;28;20024;-78
2023/05/25 01:52:53;;;;;;;12.13;5.85;;;;;;;;;;5095172;28;20048;-78
2023/05/25 01:55:20;;;;;;;10.82;5.70;;;;;;;;;;5076729;28;20102;-78
2023/05/25 01:57:51;;;;;;;13.75;6.25;;;;;;;;;;5078953;28;20025;-78
2023/05/25 02:00:18;;;;;;;18.42;6.53;;;;;;;;;;5078916;28;20035;-78
2023/05/25 02:02:46;;;;;;;15.27;6.90;;;;;;;;;;5078308;28;20069;-78
2023/05/25 02:05:13;;;;;;;12.75;6.25;;;;;;;;;;5077904;28;20032;-78
2023/05/25 02:07:39;;;;;;;15.70;6.15;;;;;;;;;;5078592;28;20025;-77
2023/05/25 02:10:05;;;;;;;15.65;6.93;;;;;;;;;;5096608;28;20095;-77
2023/05/25 02:12:31;;;;;;;15.57;6.57;;;;;;;;;;5099023;28;20165;-78
2023/05/25 02:15:03;;;;;;;14.82;6.82;;;;;;;;;;5080770;28;20119;-78
2023/05/25 02:17:29;;;;;;;15.80;6.72;;;;;;;;;;5071539;28;20054;-77
2023/05/25 02:19:55;;;;;;;15.57;6.65;;;;;;;;;;5098427;28;20504;-78
2023/05/25 02:22:21;;;;;;;17.80;6.38;;;;;;;;;;5098347;28;20028;-78
2023/05/25 02:24:47;;;;;;;14.23;5.80;;;;;;;;;;5097189;28;20035;-78
2023/05/25 02:27:13;;;;;;;15.80;6.38;;;;;;;;;;5097614;28;20039;-78
2023/05/25 02:29:40;;;;;;;15.60;7.15;;;;;;;;;;5099347;28;20034;-78
2023/05/25 02:32:06;;;;;;;17.58;7.22;;;;;;;;;;5098720;28;20411;-78
2023/05/25 02:34:32;;;;;;;13.30;6.13;;;;;;;;;;5076048;28;20060;-78
2023/05/25 02:36:58;;;;;;;15.07;6.13;;;;;;;;;;5077666;28;20024;-78
2023/05/25 02:39:27;;;;;;;13.65;6.60;;;;;;;;;;5077355;28;20036;-78
2023/05/25 02:41:53;;;;;;;15.75;6.25;;;;;;;;;;5077461;28;20099;-78
2023/05/25 02:44:19;;;;;;;16.10;6.55;;;;;;;;;;5077454;28;20032;-78
2023/05/25 02:46:45;;;;;;;14.50;6.38;;;;;;;;;;5065434;28;20033;-78
2023/05/25 02:49:11;;;;;;;11.45;5.88;;;;;;;;;;5058223;28;20036;-78
2023/05/25 02:51:37;;;;;;;16.52;6.75;;;;;;;;;;5056596;28;20475;-78
2023/05/25 02:54:04;;;;;;;19.35;6.40;;;;;;;;;;5064003;28;20120;-78
2023/05/25 02:56:31;;;;;;;15.93;6.35;;;;;;;;;;5078562;28;20025;-78
2023/05/25 02:58:57;;;;;;;11.48;6.30;;;;;;;;;;5077966;28;20052;-78
2023/05/25 03:01:24;;;;;;;13.90;6.30;;;;;;;;;;5077317;28;20039;-78
2023/05/25 03:03:53;;;;;;;10.63;5.70;;;;;;;;;;5076601;28;20078;-78
2023/05/25 03:06:22;;;;;;;13.20;6.13;;;;;;;;;;5076980;28;20028;-78
2023/05/25 03:08:48;;;;;;;14.90;7.03;;;;;;;;;;5077779;28;20078;-78
2023/05/25 03:11:14;;;;;;;17.73;7.18;;;;;;;;;;5077387;28;20363;-78
2023/05/25 03:13:41;;;;;;;14.30;6.82;;;;;;;;;;5077167;28;20025;-77
2023/05/25 03:16:07;;;;;;;14.07;7.47;;;;;;;;;;5076702;28;20086;-78
2023/05/25 03:18:33;;;;;;;19.38;8.85;;;;;;;;;;5076120;28;20032;-78
2023/05/25 03:20:58;;;;;;;18.10;7.53;;;;;;;;;;5076075;28;20017;-78
2023/05/25 03:23:25;;;;;;;15.23;8.07;;;;;;;;;;5076447;28;20082;-78
2023/05/25 03:25:51;;;;;;;18.52;8.82;;;;;;;;;;5076790;28;20071;-77
2023/05/25 03:28:17;;;;;;;19.17;7.95;;;;;;;;;;5076700;28;20028;-78
2023/05/25 03:30:43;;;;;;;24.58;9.45;;;;;;;;;;5079206;28;20026;-77
2023/05/25 03:33:09;;;;;;;16.98;8.82;;;;;;;;;;5083999;28;20051;-78
2023/05/25 03:35:35;;;;;;;23.10;9.38;;;;;;;;;;5097113;28;20027;-78
2023/05/25 03:38:01;;;;;;;20.55;9.27;;;;;;;;;;5096408;28;20020;-77
2023/05/25 03:40:27;;;;;;;21.10;9.35;;;;;;;;;;5096310;28;20069;-77
2023/05/25 03:42:53;;;;;;;20.42;9.45;;;;;;;;;;5094479;28;20039;-77
2023/05/25 03:45:19;;;;;;;16.75;9.25;;;;;;;;;;5094601;28;20522;-77
2023/05/25 03:47:46;;;;;;;18.55;9.82;;;;;;;;;;5094835;28;20115;-77
2023/05/25 03:50:12;;;;;;;20.65;9.02;;;;;;;;;;5094969;28;20111;-77
2023/05/25 03:52:38;;;;;;;19.08;9.07;;;;;;;;;;5094521;28;20039;-77
2023/05/25 03:55:04;;;;;;;17.50;8.35;;;;;;;;;;5094585;28;20032;-77
2023/05/25 03:57:30;;;;;;;20.80;8.45;;;;;;;;;;5094498;28;20039;-77
2023/05/25 03:59:56;;;;;;;12.20;7.03;;;;;;;;;;5094518;28;20574;-77
2023/05/25 04:02:22;;;;;;;20.25;8.07;;;;;;;;;;5094545;28;20032;-78
2023/05/25 04:04:50;;;;;;;18.75;8.27;;;;;;;;;;5094350;28;20028;-78
2023/05/25 04:07:16;;;;;;;17.80;8.02;;;;;;;;;;5094718;28;20106;-78
2023/05/25 04:09:42;;;;;;;16.08;8.05;;;;;;;;;;5076283;28;20040;-77
2023/05/25 04:12:09;;;;;;;19.52;7.95;;;;;;;;;;5094141;28;20032;-78
2023/05/25 04:14:35;;;;;;;12.77;7.85;;;;;;;;;;5094062;28;20116;-77
2023/05/25 04:17:01;;;;;;;18.77;7.68;;;;;;;;;;5094116;28;20051;-77
2023/05/25 04:19:27;;;;;;;17.10;8.40;;;;;;;;;;5093778;28;20029;-78
2023/05/25 04:21:53;;;;;;;15.88;8.48;;;;;;;;;;5094271;28;20020;-78
2023/05/25 04:24:20;;;;;;;15.55;7.32;;;;;;;;;;5094433;28;20056;-78
2023/05/25 04:26:47;;;;;;;17.27;7.68;;;;;;;;;;5094163;28;20032;-78
2023/05/25 04:29:13;;;;;;;15.65;7.00;;;;;;;;;;5094377;28;20466;-78
2023/05/25 04:31:39;;;;;;;13.50;7.55;;;;;;;;;;5094301;28;20031;-78
2023/05/25 04:34:08;;;;;;;12.55;7.25;;;;;;;;;;5093690;28;20048;-78
2023/05/25 04:36:37;;;;;;;15.02;7.57;;;;;;;;;;5097718;28;20027;-78
2023/05/25 04:39:03;;;;;;;15.50;6.65;;;;;;;;;;5114710;28;20026;-78
2023/05/25 04:41:29;;;;;;;19.02;8.07;;;;;;;;;;5114692;28;20102;-78
2023/05/25 04:43:56;;;;;;;13.10;6.43;;;;;;;;;;5112358;28;20525;-78
2023/05/25 04:46:22;;;;;;;14.63;6.30;;;;;;;;;;5089188;28;20111;-79
2023/05/25 04:48:49;;;;;;;17.90;7.40;;;;;;;;;;5082154;28;20064;-79
2023/05/25 04:51:15;;;;;;;15.27;7.22;;;;;;;;;;5086041;28;20027;-79
2023/05/25 04:53:41;;;;;;;14.07;5.80;;;;;;;;;;5064517;28;20471;-80
2023/05/25 04:56:07;;;;;;;15.55;6.57;;;;;;;;;;5084950;28;20033;-80
2023/05/25 04:58:33;;;;;;;16.20;6.47;;;;;;;;;;5088252;28;20020;-80
2023/05/25 05:00:59;;;;;;;14.25;6.50;;;;;;;;;;5093026;28;20455;-79
2023/05/25 05:03:25;;;;;;;19.77;6.40;;;;;;;;;;5085838;28;20036;-80
2023/05/25 05:05:51;;;;;;;10.65;5.75;;;;;;;;;;5087802;28;20455;-80
2023/05/25 05:08:17;;;;;;;13.15;5.72;;;;;;;;;;5092208;28;20039;-80
2023/05/25 05:10:43;;;;;;;8.73;5.15;;;;;;;;;;5093043;28;20024;-80
2023/05/25 05:13:10;;;;;;;11.80;6.10;;;;;;;;;;5093138;28;20518;-80
2023/05/25 05:15:36;;;;;;;14.75;5.70;;;;;;;;;;5092674;28;20024;-80
2023/05/25 05:18:02;;;;;;;13.82;6.60;;;;;;;;;;5092327;28;20028;-80
2023/05/25 05:20:28;;;;;;;12.05;6.40;;;;;;;;;;5085530;28;20460;-80
2023/05/25 05:22:54;;;;;;;11.23;5.60;;;;;;;;;;5097423;28;20031;-80
2023/05/25 05:25:20;;;;;;;12.68;6.57;;;;;;;;;;5095525;28;20024;-80
2023/05/25 05:27:46;;;;;;;11.45;6.28;;;;;;;;;;5076568;28;20036;-80
2023/05/25 05:30:12;;;;;;;9.60;5.68;;;;;;;;;;5085988;28;20066;-80
2023/05/25 05:32:38;;;;;;;10.98;6.30;;;;;;;;;;5092752;28;20020;-80
2023/05/25 05:35:04;;;;;;;11.35;4.85;;;;;;;;;;5093779;28;20038;-80
2023/05/25 05:37:30;;;;;;;10.55;5.63;;;;;;;;;;5074974;28;20028;-80
2023/05/25 05:39:56;;;;;;;14.95;6.10;;;;;;;;;;5095884;28;20024;-80
2023/05/25 05:42:22;;;;;;;14.63;5.57;;;;;;;;;;5098712;28;20064;-81
2023/05/25 05:44:48;;;;;;;9.23;5.40;;;;;;;;;;5087542;28;20100;-81
2023/05/25 05:47:14;;;;;;;16.73;6.82;;;;;;;;;;5093568;28;20042;-81
2023/05/25 05:49:40;;;;;;;14.38;6.43;;;;;;;;;;5092128;28;20036;-81
2023/05/25 05:52:09;;;;;;;9.07;5.68;;;;;;;;;;5093498;28;20024;-81
2023/05/25 05:54:35;;;;;;;13.18;7.20;;;;;;;;;;5094302;28;20086;-81
2023/05/25 05:57:01;;;;;;;9.15;6.03;;;;;;;;;;5076008;28;20459;-81
2023/05/25 05:59:27;;;;;;;10.52;5.35;;;;;;;;;;5093857;28;20401;-80
2023/05/25 06:01:53;;;;;;;11.20;6.43;;;;;;;;;;5091247;28;20035;-81
2023/05/25 06:04:19;;;;;;;11.40;6.68;;;;;;;;;;5099120;28;20031;-81
2023/05/25 06:06:45;;;;;;;12.82;6.18;;;;;;;;;;5099353;28;20107;-81
2023/05/25 06:09:11;;;;;;;18.05;7.20;;;;;;;;;;5099133;28;20066;-80
2023/05/25 06:11:38;;;;;;;11.10;5.32;;;;;;;;;;5094704;28;20071;-80
2023/05/25 06:14:05;;;;;;;13.07;6.15;;;;;;;;;;5091419;28;20016;-81
2023/05/25 06:16:31;;;;;;;11.55;5.25;;;;;;;;;;5091377;28;20123;-81
2023/05/25 06:18:57;;;;;;;15.00;6.70;;;;;;;;;;5090051;28;20580;-81
2023/05/25 06:21:23;;;;;;;11.23;6.20;;;;;;;;;;5085483;28;20028;-80
2023/05/25 06:23:50;;;;;;;13.15;6.70;;;;;;;;;;5090682;28;20308;-80
2023/05/25 06:26:16;;;;;;;14.50;7.05;;;;;;;;;;5091253;28;20027;-81
2023/05/25 06:28:42;;;;;;;11.68;5.03;;;;;;;;;;5092028;28;20028;-81
2023/05/25 06:31:08;;;;;;;13.10;5.13;;;;;;;;;;5089964;28;20444;-81
2023/05/25 06:33:34;;;;;;;8.77;5.00;;;;;;;;;;5088387;28;20138;-80
2023/05/25 06:36:00;;;;;;;10.07;5.03;;;;;;;;;;5092157;28;20495;-80
2023/05/25 06:38:26;;;;;;;9.55;4.28;;;;;;;;;;5091771;28;20017;-80
2023/05/25 06:40:53;;;;;;;10.07;4.20;;;;;;;;;;5092121;28;20050;-81
2023/05/25 06:43:19;;;;;;;8.73;4.00;;;;;;;;;;5095545;28;20047;-81
2023/05/25 06:45:45;;;;;;;7.45;3.75;;;;;;;;;;5094773;28;20363;-80
2023/05/25 06:48:11;;;;;;;9.20;3.70;;;;;;;;;;5094860;28;20043;-80
2023/05/25 06:50:38;;;;;;;10.50;4.75;;;;;;;;;;5095806;28;20028;-81
2023/05/25 06:53:05;;;;;;;4.05;2.22;;;;;;;;;;5094651;28;20236;-81
2023/05/25 06:55:31;;;;;;;10.63;3.40;;;;;;;;;;5096010;28;20031;-81
2023/05/25 06:57:57;;;;;;;10.38;4.00;;;;;;;;;;5096431;28;20028;-81
2023/05/25 07:00:24;;;;;;;8.63;2.30;;;;;;;;;;5090496;28;20053;-81
2023/05/25 07:02:50;;;;;;;4.25;1.90;;;;;;;;;;5103939;28;20068;-80
2023/05/25 07:05:16;;;;;;;5.95;3.20;;;;;;;;;;5101330;28;21636;-81
2023/05/25 07:07:42;;;;;;;8.23;2.67;;;;;;;;;;5079861;28;20026;-81
2023/05/25 07:10:08;;;;;;;8.88;2.47;;;;;;;;;;5100047;28;20032;-81
2023/05/25 07:12:34;;;;;;;9.50;2.30;;;;;;;;;;5096299;28;20020;-81
2023/05/25 07:15:00;;;;;;;8.82;2.40;;;;;;;;;;5104622;28;20283;-81
2023/05/25 07:17:27;;;;;;;11.00;2.95;;;;;;;;;;5098067;28;20048;-81
2023/05/25 07:19:53;;;;;;;8.98;2.63;;;;;;;;;;5099812;28;20031;-81
2023/05/25 07:22:19;;;;;;;8.07;3.10;;;;;;;;;;5102887;28;20536;-81
2023/05/25 07:24:45;;;;;;;9.75;2.88;;;;;;;;;;5106075;28;20024;-81
2023/05/25 07:27:12;;;;;;;7.68;2.78;;;;;;;;;;5104573;28;20124;-81
2023/05/25 07:29:38;;;;;;;5.22;2.22;;;;;;;;;;5103595;28;20399;-81
2023/05/25 07:32:05;;;;;;;8.63;2.00;;;;;;;;;;5105199;28;20031;-81
2023/05/25 07:34:35;;;;;;;5.97;2.10;;;;;;;;;;5108160;28;20047;-80
2023/05/25 07:37:01;;;;;;;6.22;2.45;;;;;;;;;;5102089;28;20024;-81
2023/05/25 07:39:27;;;;;;;5.63;2.05;;;;;;;;;;5104706;28;20381;-81
2023/05/25 07:41:53;;;;;;;8.45;2.60;;;;;;;;;;5100939;28;20032;-81
2023/05/25 07:44:19;;;;;;;11.63;2.28;;;;;;;;;;5104697;28;20486;-81
2023/05/25 07:46:45;;;;;;;10.88;3.15;;;;;;;;;;5103514;28;20031;-81
2023/05/25 07:49:14;;;;;;;11.57;3.10;;;;;;;;;;5102905;28;20047;-81
2023/05/25 07:51:40;;;;;;;11.32;2.42;;;;;;;;;;5105308;28;20019;-81
2023/05/25 07:54:06;;;;;;;8.73;2.33;;;;;;;;;;5099271;28;20027;-80
2023/05/25 07:56:32;;;;;;;7.20;2.80;;;;;;;;;;5105852;28;20075;-80
2023/05/25 07:58:59;;;;;;;7.82;1.67;;;;;;;;;;5103211;28;20059;-80
2023/05/25 08:01:25;;;;;;;9.60;2.80;;;;;;;;;;5087677;28;20023;-81
2023/05/25 08:03:51;;;;;;;9.55;2.40;;;;;;;;;;5106834;28;20016;-80
2023/05/25 08:06:18;;;;;;;8.20;2.10;;;;;;;;;;5085727;28;20031;-81
2023/05/25 08:08:44;;;;;;;6.70;2.50;;;;;;;;;;5106774;28;20039;-81
2023/05/25 08:11:10;;;;;;;8.10;1.63;;;;;;;;;;5103669;28;20035;-79
2023/05/25 08:13:37;;;;;;;11.75;2.95;;;;;;;;;;5103506;28;20019;-76
2023/05/25 08:16:03;;;;;;;7.15;2.20;;;;;;;;;;5114203;28;20068;-76
2023/05/25 08:18:30;;;;;;;9.52;2.83;;;;;;;;;;5103457;28;20099;-76
2023/05/25 08:20:56;;;;;;;9.65;2.72;;;;;;;;;;5094046;28;20027;-76
2023/05/25 08:23:22;;;;;;;10.63;2.75;;;;;;;;;;5084133;28;20021;-76
2023/05/25 08:25:49;;;;;;;10.52;3.00;;;;;;;;;;5073559;28;20039;-76
2023/05/25 08:28:15;;;;;;;11.45;3.13;;;;;;;;;;5073590;28;20478;-76
2023/05/25 08:30:42;;;;;;;15.30;3.20;;;;;;;;;;5073161;28;20499;-76
2023/05/25 08:33:08;;;;;;;12.70;2.03;;;;;;;;;;5073666;28;20353;-78
2023/05/25 08:35:38;;;;;;;9.23;2.00;;;;;;;;;;5073611;28;20174;-75
2023/05/25 08:38:04;;;;;;;15.98;2.70;;;;;;;;;;5073365;28;20032;-76
2023/05/25 08:40:30;;;;;;;10.93;2.78;;;;;;;;;;5091394;28;20549;-76
2023/05/25 08:42:56;;;;;;;11.82;2.88;;;;;;;;;;5093301;28;20031;-76
2023/05/25 08:45:22;;;;;;;13.05;2.42;;;;;;;;;;5093241;28;20130;-76
2023/05/25 08:47:50;;;;;;;9.27;2.20;;;;;;;;;;5093173;28;20028;-76
2023/05/25 08:50:16;;;;;;;7.35;2.15;;;;;;;;;;5093106;28;20107;-76
2023/05/25 08:52:45;;;;;;;13.27;2.85;;;;;;;;;;5093075;28;20575;-76
2023/05/25 08:55:12;;;;;;;17.60;3.00;;;;;;;;;;5093447;28;20024;-76
2023/05/25 08:57:57;;;;;;;21.45;3.38;;;;;;;;;;5092857;28;20024;-76
2023/05/25 09:00:31;;;;;;;17.00;4.63;;;;;;;;;;5092903;28;20027;-76
2023/05/25 09:03:00;;;;;;;13.35;2.60;;;;;;;;;;5093037;28;20060;-76
2023/05/25 09:05:26;;;;;;;9.80;2.50;;;;;;;;;;5093152;28;20020;-76
2023/05/25 09:07:55;;;;;;;11.93;2.40;;;;;;;;;;5092747;28;20027;-77
2023/05/25 09:10:23;;;;;;;12.65;2.60;;;;;;;;;;5092819;28;20034;-76
2023/05/25 09:12:50;;;;;;;7.97;2.35;;;;;;;;;;5092833;28;20081;-76
2023/05/25 09:15:16;;;;;;;11.20;2.25;;;;;;;;;;5092494;28;20047;-76
2023/05/25 09:17:42;;;;;;;10.20;2.45;;;;;;;;;;5092558;28;20043;-76
2023/05/25 09:20:12;;;;;;;9.35;1.88;;;;;;;;;;5074440;28;20463;-76
2023/05/25 09:22:38;;;;;;;;;;;;;;;;;;5093264;28;20020;-76
2023/05/25 09:25:07;;;;;;;6.72;1.85;;;;;;;;;;5092685;28;19915;-76
2023/05/25 09:27:38;;;;;;;13.82;2.75;;;;;;;;;;5092617;28;20027;-76
2023/05/25 09:30:04;;;;;;;14.10;3.05;;;;;;;;;;5092566;28;20024;-76
2023/05/25 09:32:30;;;;;;;7.28;3.38;;;;;;;;;;5092624;28;20020;-76
2023/05/25 09:35:06;;;;;;;9.38;2.40;;;;;;;;;;5091172;28;20063;-76
2023/05/25 09:37:32;;;;;;;15.65;2.45;;;;;;;;;;5092464;28;20470;-76
2023/05/25 09:39:58;;;;;;;7.82;2.35;;;;;;;;;;5090782;28;20028;-76
2023/05/25 09:42:24;;;;;;;8.32;2.10;;;;;;;;;;5072293;28;20075;-76
2023/05/25 09:44:50;;;;;;;9.57;2.08;;;;;;;;;;5082480;28;20040;-75
2023/05/25 09:47:17;;;;;;;9.55;2.25;;;;;;;;;;5092258;28;20028;-75
2023/05/25 09:49:46;;;;;;;8.30;2.47;;;;;;;;;;5075231;28;20036;-75
2023/05/25 09:52:12;;;;;;;10.43;2.40;;;;;;;;;;5074868;28;20023;-75
2023/05/25 09:54:38;;;;;;;8.38;2.20;;;;;;;;;;5093260;28;20474;-75
2023/05/25 09:57:05;;;;;;;10.90;2.15;;;;;;;;;;5096130;28;20112;-75
2023/05/25 09:59:31;;;;;;;9.68;2.92;;;;;;;;;;5082312;28;20103;-74
2023/05/25 10:01:58;;;;;;;21.15;2.90;;;;;;;;;;5099547;28;20032;-75
2023/05/25 10:04:24;;;;;;;7.10;2.40;;;;;;;;;;5101890;28;20051;-75
2023/05/25 10:06:51;;;;;;;11.13;3.30;;;;;;;;;;5103766;28;20020;-75
2023/05/25 10:09:20;;;;;;;7.13;1.80;;;;;;;;;;5100879;28;20031;-75
2023/05/25 10:11:47;;;;;;;8.33;3.00;;;;;;;;;;5091185;28;20682;-75
2023/05/25 10:14:19;;;;;;;10.90;2.50;;;;;;;;;;5091775;28;20024;-75
2023/05/25 10:16:49;;;;;;;9.82;2.20;;;;;;;;;;5100308;28;20394;-75
2023/05/25 10:19:41;;;;;;;8.60;2.10;;;;;;;;;;5106128;28;20099;-75
2023/05/25 10:22:10;;;;;;;6.68;1.83;;;;;;;;;;5091483;28;20036;-75
2023/05/25 10:24:40;;;;;;;14.40;3.45;;;;;;;;;;5095997;28;20025;-75
2023/05/25 10:27:10;;;;;;;12.40;3.22;;;;;;;;;;5095751;28;20447;-75
2023/05/25 10:29:36;;;;;;;;;;;;;;;;;;5096263;28;20558;-75
2023/05/25 10:32:04;;;;;;;4.95;1.42;;;;;;;;;;5096155;28;19951;-75
2023/05/25 10:34:30;;;;;;;11.52;2.67;;;;;;;;;;5094698;28;20094;-75
2023/05/25 10:37:01;;;;;;;13.57;3.22;;;;;;;;;;5095557;28;20020;-75
2023/05/25 10:39:28;;;;;;;11.70;2.80;;;;;;;;;;5095631;28;20110;-75
2023/05/25 10:41:54;;;;;;;8.48;2.60;;;;;;;;;;5095531;28;20028;-75
2023/05/25 10:44:20;;;;;;;11.95;2.28;;;;;;;;;;5095631;28;20017;-75
2023/05/25 10:46:47;;;;;;;12.82;2.45;;;;;;;;;;5095359;28;20028;-75
2023/05/25 10:49:12;;;;;;;4.32;1.30;;;;;;;;;;5095426;28;20028;-75
2023/05/25 10:51:40;;;;;;;10.98;2.20;;;;;;;;;;5077204;28;20035;-75
2023/05/25 10:54:06;;;;;;;7.70;1.98;;;;;;;;;;5075222;28;20486;-75
2023/05/25 10:56:32;;;;;;;13.48;3.08;;;;;;;;;;5075347;28;20032;-75
2023/05/25 10:58:58;;;;;;;12.82;3.33;;;;;;;;;;5075246;28;20033;-75
2023/05/25 11:01:24;;;;;;;11.43;2.88;;;;;;;;;;5081262;28;20051;-75
2023/05/25 11:03:55;;;;;;;12.27;2.83;;;;;;;;;;5095292;28;20389;-75
2023/05/25 11:06:22;;;;;;;10.73;2.05;;;;;;;;;;5095214;28;20485;-75
2023/05/25 11:08:58;;;;;;;11.27;3.05;;;;;;;;;;5095218;28;20024;-75
2023/05/25 11:11:42;;;;;;;9.65;2.55;;;;;;;;;;5094619;28;20024;-74
2023/05/25 11:14:29;;;;;;;7.45;1.98;;;;;;;;;;5089175;28;20039;-75
2023/05/25 11:17:09;;;;;;;14.20;3.17;;;;;;;;;;5080995;28;20111;-75
2023/05/25 11:19:42;;;;;;;13.00;2.45;;;;;;;;;;5075173;28;20066;-75
2023/05/25 11:22:19;;;;;;;10.52;2.67;;;;;;;;;;5078444;28;20021;-74
2023/05/25 11:24:45;;;;;;;16.52;2.88;;;;;;;;;;5086343;28;20106;-75
2023/05/25 11:27:11;;;;;;;14.25;3.20;;;;;;;;;;5072406;28;20090;-75
2023/05/25 11:29:38;;;;;;;15.73;2.45;;;;;;;;;;5093524;28;20024;-74
2023/05/25 11:32:05;;;;;;;10.80;2.75;;;;;;;;;;5094989;28;20028;-74
2023/05/25 11:34:31;;;;;;;11.35;2.15;;;;;;;;;;5093171;28;20071;-74
2023/05/25 11:37:00;;;;;;;8.40;2.80;;;;;;;;;;5108153;28;20024;-74
2023/05/25 11:39:26;;;;;;;15.80;2.78;;;;;;;;;;5115328;28;20493;-74
2023/05/25 11:41:56;;;;;;;14.57;2.45;;;;;;;;;;5099935;28;20023;-74
2023/05/25 11:44:29;;;;;;;13.15;2.85;;;;;;;;;;5094257;28;20031;-74
2023/05/25 11:46:56;;;;;;;13.75;3.25;;;;;;;;;;5094388;28;20127;-74
2023/05/25 11:49:23;;;;;;;13.68;2.60;;;;;;;;;;5094262;28;20451;-74
2023/05/25 11:51:50;;;;;;;10.63;2.38;;;;;;;;;;5094260;28;20020;-74
2023/05/25 11:54:25;;;;;;;17.33;3.45;;;;;;;;;;5094285;28;20031;-74
2023/05/25 11:56:52;;;;;;;10.20;2.53;;;;;;;;;;5094249;28;20020;-74
2023/05/25 11:59:18;;;;;;;18.08;3.20;;;;;;;;;;5093861;28;20020;-74
2023/05/25 12:01:54;;;;;;;15.15;2.58;;;;;;;;;;5094051;28;20078;-74
2023/05/25 12:04:20;;;;;;;14.45;2.67;;;;;;;;;;5055662;28;20034;-74
2023/05/25 12:06:47;;;;;;;11.10;3.78;;;;;;;;;;5073786;28;20107;-74
2023/05/25 12:09:18;;;;;;;11.00;2.55;;;;;;;;;;5074393;28;20044;-74
2023/05/25 12:11:44;;;;;;;18.65;4.65;;;;;;;;;;5073743;28;20039;-74
2023/05/25 12:14:10;;;;;;;17.70;3.38;;;;;;;;;;5073875;28;20036;-74
2023/05/25 12:16:40;;;;;;;9.98;2.72;;;;;;;;;;5073767;28;20475;-74
2023/05/25 12:19:07;;;;;;;14.77;3.25;;;;;;;;;;5073361;28;20021;-74
2023/05/25 12:21:33;;;;;;;10.35;3.50;;;;;;;;;;5073651;28;20066;-74
2023/05/25 12:24:00;;;;;;;14.40;2.58;;;;;;;;;;5073400;28;20036;-74
2023/05/25 12:26:27;;;;;;;17.35;3.22;;;;;;;;;;5073309;28;20017;-74
2023/05/25 12:29:03;;;;;;;10.38;2.40;;;;;;;;;;5072941;28;20020;-75
2023/05/25 12:31:30;;;;;;;14.70;3.47;;;;;;;;;;5074626;28;20025;-74
2023/05/25 12:34:05;;;;;;;17.25;3.00;;;;;;;;;;5093440;28;20131;-74
2023/05/25 12:36:50;;;;;;;14.52;2.85;;;;;;;;;;5093468;28;20032;-74
2023/05/25 12:39:28;;;;;;;14.85;3.15;;;;;;;;;;5093105;28;20023;-74
2023/05/25 12:41:55;;;;;;;14.23;2.55;;;;;;;;;;5093514;28;20115;-74
2023/05/25 12:44:22;;;;;;;13.68;3.20;;;;;;;;;;5092302;28;20446;-74
2023/05/25 12:46:49;;;;;;;7.00;2.30;;;;;;;;;;5110476;28;20031;-74
2023/05/25 12:49:32;;;;;;;21.35;3.30;;;;;;;;;;5096029;28;20035;-74
2023/05/25 12:51:59;;;;;;;11.15;3.25;;;;;;;;;;5093346;28;20048;-74
2023/05/25 12:54:42;;;;;;;12.27;2.83;;;;;;;;;;5093287;28;20063;-74
2023/05/25 12:57:10;;;;;;;18.08;3.28;;;;;;;;;;5093699;28;20490;-74
2023/05/25 12:59:36;;;;;;;14.63;3.38;;;;;;;;;;5094572;28;20028;-74
2023/05/25 13:02:03;;;;;;;14.00;3.03;;;;;;;;;;5092823;28;20031;-74
2023/05/25 13:04:29;;;;;;;13.15;2.88;;;;;;;;;;5093024;28;20149;-74
2023/05/25 13:06:55;;;;;;;11.75;2.85;;;;;;;;;;5093192;28;20035;-74
2023/05/25 13:09:28;;;;;;;11.55;2.80;;;;;;;;;;5092858;28;20024;-74
2023/05/25 13:11:57;;;;;;;11.10;2.88;;;;;;;;;;5092816;28;20041;-74
2023/05/25 13:14:23;;;;;;;12.88;2.53;;;;;;;;;;5092759;28;20031;-74
2023/05/25 13:16:50;;;;;;;9.55;2.63;;;;;;;;;;5092700;28;20039;-74
2023/05/25 13:19:16;;;;;;;13.18;2.95;;;;;;;;;;5103696;28;20020;-74
2023/05/25 13:21:42;;;;;;;17.52;3.42;;;;;;;;;;5093195;28;20023;-74
2023/05/25 13:24:08;;;;;;;9.25;2.22;;;;;;;;;;5093027;28;20577;-74
2023/05/25 13:26:34;;;;;;;16.27;2.67;;;;;;;;;;5092646;28;20036;-74
2023/05/25 13:29:00;;;;;;;11.65;2.80;;;;;;;;;;5092419;28;20024;-74
2023/05/25 13:31:26;;;;;;;12.13;2.85;;;;;;;;;;5099664;28;20027;-74
2023/05/25 13:33:52;;;;;;;13.52;4.07;;;;;;;;;;5111630;28;20040;-74
2023/05/25 13:36:18;;;;;;;13.70;2.95;;;;;;;;;;5112377;28;20466;-74
2023/05/25 13:38:44;;;;;;;14.40;3.17;;;;;;;;;;5112922;28;20050;-74
2023/05/25 13:41:11;;;;;;;13.70;3.17;;;;;;;;;;5099553;28;20096;-74
2023/05/25 13:43:37;;;;;;;11.27;2.65;;;;;;;;;;5092480;28;20397;-74
2023/05/25 13:46:04;;;;;;;13.30;3.20;;;;;;;;;;5093052;28;20035;-74
2023/05/25 13:48:30;;;;;;;8.60;2.42;;;;;;;;;;5092947;28;20020;-74
2023/05/25 13:50:56;;;;;;;10.25;2.28;;;;;;;;;;5095258;28;20031;-74
2023/05/25 13:53:22;;;;;;;8.88;2.50;;;;;;;;;;5100715;28;20674;-74
2023/05/25 13:55:48;;;;;;;10.88;2.65;;;;;;;;;;5096762;28;20495;-74
2023/05/25 13:58:14;;;;;;;22.27;4.13;;;;;;;;;;5096477;28;20020;-74
2023/05/25 14:00:40;;;;;;;11.48;2.28;;;;;;;;;;5097915;28;20371;-74
2023/05/25 14:03:06;;;;;;;8.80;2.38;;;;;;;;;;5096985;28;20052;-74
2023/05/25 14:05:32;;;;;;;15.85;2.55;;;;;;;;;;5096783;28;20024;-74
2023/05/25 14:08:01;;;;;;;11.77;2.35;;;;;;;;;;5096697;28;20056;-74
2023/05/25 14:10:27;;;;;;;9.30;2.33;;;;;;;;;;5096668;28;20021;-74
2023/05/25 14:12:53;;;;;;;11.80;2.15;;;;;;;;;;5096372;28;20024;-74
2023/05/25 14:15:19;;;;;;;14.15;2.13;;;;;;;;;;5095949;28;20575;-74
2023/05/25 14:17:45;;;;;;;8.65;2.42;;;;;;;;;;5095278;28;20035;-74
2023/05/25 14:20:14;;;;;;;12.27;2.53;;;;;;;;;;5104282;28;20107;-74
2023/05/25 14:22:40;;;;;;;9.27;2.33;;;;;;;;;;5101862;28;20024;-74
2023/05/25 14:25:07;;;;;;;6.85;2.13;;;;;;;;;;5095686;28;20032;-74
2023/05/25 14:27:33;;;;;;;14.15;2.83;;;;;;;;;;5096032;28;20032;-74
2023/05/25 14:29:58;;;;;;;16.10;2.47;;;;;;;;;;5095926;28;20020;-74
2023/05/25 14:32:24;;;;;;;13.38;3.60;;;;;;;;;;5095932;28;20033;-74
2023/05/25 14:34:50;;;;;;;8.95;3.05;;;;;;;;;;5095409;28;20562;-74